Time;durP1;ratioP1;P1;durP2;ratioP2;P2;SDS_P1;SDS_P2;PMS_P1;PMS_P2;Temp;Humidity;BMP_temperature;BMP_pressure;BME280_temperature;BME280_humidity;BME280_pressure;Samples;Min_cycle;Max_cycle;Signal;HPM_P1;HPM_P2
2022/04/26 03:36:32;;;;;;;;;;;5.40;91.40;;;;;;6159510;23;20230;-76
2022/04/26 03:38:57;;;;;;;;;;;5.40;91.70;;;;;;6159659;23;19916;-78
2022/04/26 03:41:23;;;;;;;;;;;5.30;91.70;;;;;;6135171;23;19982;-77
2022/04/26 03:43:48;;;;;;;;;;;5.40;92.10;;;;;;6159040;23;19944;-78
2022/04/26 03:46:14;;;;;;;;;;;5.30;91.60;;;;;;6135367;23;19916;-78
2022/04/26 03:48:40;;;;;;;;;;;5.40;91.60;;;;;;6135237;23;20204;-78
2022/04/26 03:51:05;;;;;;;;;;;5.20;91.30;;;;;;6159615;23;20220;-79
2022/04/26 03:53:31;;;;;;;;;;;5.20;91.70;;;;;;6134687;23;19920;-79
2022/04/26 03:55:56;;;;;;;;;;;5.20;91.80;;;;;;6159927;23;19916;-78
2022/04/26 03:58:22;;;;;;;;;;;5.20;91.60;;;;;;6135403;23;19982;-78
2022/04/26 04:00:47;;;;;;;;;;;5.20;91.90;;;;;;6135116;23;19912;-78
2022/04/26 04:03:13;;;;;;;;;;;5.50;92.10;;;;;;6159338;23;19919;-77
2022/04/26 04:05:41;;;;;;;;;;;5.40;92.60;;;;;;6134783;23;20323;-78
2022/04/26 04:08:06;;;;;;;;;;;5.40;92.50;;;;;;6159903;23;19912;-77
2022/04/26 04:10:32;;;;;;;;;;;5.40;92.20;;;;;;6163310;23;20331;-73
2022/04/26 04:12:58;;;;;;;;;;;5.60;92.30;;;;;;6154904;23;19916;-73
2022/04/26 04:15:23;;;;;;;;;;;5.50;92.40;;;;;;6145671;23;19916;-79
2022/04/26 04:17:49;;;;;;;;;;;5.60;91.90;;;;;;6137201;23;19916;-76
2022/04/26 04:20:15;;;;;;;;;;;5.70;91.60;;;;;;6161597;23;20238;-79
2022/04/26 04:22:41;;;;;;;;;;;6.00;91.70;;;;;;6160627;23;19995;-80
2022/04/26 04:25:07;;;;;;;;;;;5.80;91.40;;;;;;6161676;23;19974;-77
2022/04/26 04:27:32;;;;;;;;;;;5.80;91.20;;;;;;6161598;23;19971;-78
2022/04/26 04:30:02;;;;;;;;;;;5.70;91.40;;;;;;6161778;23;19991;-78
2022/04/26 04:32:28;;;;;;;;;;;5.80;91.40;;;;;;6144973;23;19916;-76
2022/04/26 04:34:54;;;;;;;;;;;5.80;91.30;;;;;;6161536;23;19923;-77
2022/04/26 04:37:20;;;;;;;;;;;5.70;91.50;;;;;;6136645;23;20235;-77
2022/04/26 04:39:51;;;;;;;;;;;5.80;91.40;;;;;;6137265;23;19919;-77
2022/04/26 04:42:17;;;;;;;;;;;5.80;91.50;;;;;;6160387;23;20277;-78
2022/04/26 04:44:43;;;;;;;;;;;5.80;91.50;;;;;;6136502;23;19983;-78
2022/04/26 04:47:08;;;;;;;;;;;5.80;91.30;;;;;;6136417;23;19912;-78
2022/04/26 04:49:34;;;;;;;;;;;5.90;91.20;;;;;;6161224;23;19916;-78
2022/04/26 04:51:59;;;;;;;;;;;5.90;91.10;;;;;;6136723;23;19917;-78
2022/04/26 04:54:25;;;;;;;;;;;6.00;91.20;;;;;;6160770;23;19982;-78
2022/04/26 04:56:51;;;;;;;;;;;6.10;91.40;;;;;;6136754;23;20209;-77
2022/04/26 04:59:16;;;;;;;;;;;6.10;91.10;;;;;;6136552;23;19946;-76
2022/04/26 05:01:42;;;;;;;;;;;6.10;91.00;;;;;;6160847;23;19919;-79
2022/04/26 05:04:08;;;;;;;;;;;6.10;91.10;;;;;;6136160;23;19983;-77
2022/04/26 05:06:33;;;;;;;;;;;6.40;91.00;;;;;;6160690;23;20331;-78
2022/04/26 05:08:59;;;;;;;;;;;6.30;90.80;;;;;;6161013;23;19916;-78
2022/04/26 05:11:25;;;;;;;;;;;6.30;90.70;;;;;;6137156;23;20234;-78
2022/04/26 05:13:50;;;;;;;;;;;6.50;90.70;;;;;;6136859;23;19912;-79
2022/04/26 05:16:16;;;;;;;;;;;6.50;90.40;;;;;;6136300;23;19912;-79
2022/04/26 05:18:42;;;;;;;;;;;6.50;90.40;;;;;;6161767;23;19923;-78
2022/04/26 05:21:12;;;;;;;;;;;6.60;90.00;;;;;;6163257;23;20349;-78
2022/04/26 05:26:36;;;;;;;;;;;6.70;90.00;;;;;;6118866;23;19916;-79
2022/04/26 05:29:02;;;;;;;;;;;6.80;90.00;;;;;;6160721;23;19912;-78
2022/04/26 05:31:27;;;;;;;;;;;7.00;89.40;;;;;;6136612;23;19912;-78
2022/04/26 05:33:53;;;;;;;;;;;7.20;89.50;;;;;;6135687;23;19919;-80
2022/04/26 05:36:19;;;;;;;;;;;7.40;89.10;;;;;;6135430;23;20279;-80
2022/04/26 05:38:44;;;;;;;;;;;7.40;88.70;;;;;;6135689;23;19996;-79
2022/04/26 05:41:10;;;;;;;;;;;7.50;87.40;;;;;;6160858;23;19912;-79
2022/04/26 05:43:35;;;;;;;;;;;7.70;87.20;;;;;;6160457;23;20331;-79
2022/04/26 05:46:01;;;;;;;;;;;7.90;86.70;;;;;;6135822;23;20035;-79
2022/04/26 05:48:27;;;;;;;;;;;8.00;85.90;;;;;;6136031;23;20323;-79
2022/04/26 05:50:54;;;;;;;;;;;8.00;84.90;;;;;;6136321;23;19944;-79
2022/04/26 05:53:19;;;;;;;;;;;8.20;85.50;;;;;;6136402;23;19923;-80
2022/04/26 05:55:45;;;;;;;;;;;8.10;82.80;;;;;;6135498;23;20259;-78
2022/04/26 05:58:10;;;;;;;;;;;8.20;82.40;;;;;;6135279;23;19916;-79
2022/04/26 06:00:36;;;;;;;;;;;8.20;82.40;;;;;;6160236;23;20337;-79
2022/04/26 06:03:02;;;;;;;;;;;8.20;81.70;;;;;;6160812;23;19968;-80
2022/04/26 06:05:27;;;;;;;;;;;8.10;82.00;;;;;;6135182;23;19918;-79
2022/04/26 06:07:53;;;;;;;;;;;8.10;82.70;;;;;;6159660;23;19916;-80
2022/04/26 06:10:19;;;;;;;;;;;8.10;81.70;;;;;;6160069;23;19912;-77
2022/04/26 06:12:45;;;;;;;;;;;8.20;81.50;;;;;;6135946;23;19916;-76
2022/04/26 06:15:11;;;;;;;;;;;8.30;81.80;;;;;;6135732;23;20307;-78
2022/04/26 06:17:36;;;;;;;;;;;8.30;81.30;;;;;;6160182;23;19923;-77
2022/04/26 06:20:03;;;;;;;;;;;8.40;80.70;;;;;;6136236;23;19916;-77
2022/04/26 06:22:28;;;;;;;;;;;8.60;80.50;;;;;;6135803;23;19916;-70
2022/04/26 06:25:00;;;;;;;;;;;8.60;79.90;;;;;;6210844;23;19920;-77
2022/04/26 06:27:25;;;;;;;;;;;8.80;80.60;;;;;;6158786;23;19983;-74
2022/04/26 06:29:51;;;;;;;;;;;8.60;78.60;;;;;;6149324;23;19916;-74
2022/04/26 06:32:16;;;;;;;;;;;8.60;79.00;;;;;;6159979;23;19953;-75
2022/04/26 06:34:42;;;;;;;;;;;8.80;78.30;;;;;;6187409;23;19916;-75
2022/04/26 06:37:08;;;;;;;;;;;9.00;77.80;;;;;;6167524;23;19929;-74
2022/04/26 06:39:33;;;;;;;;;;;9.10;76.60;;;;;;6165288;23;19916;-77
2022/04/26 06:41:59;;;;;;;;;;;9.00;76.40;;;;;;6135172;23;19920;-74
2022/04/26 06:44:30;;;;;;;;;;;8.90;76.10;;;;;;6135727;23;19923;-76
2022/04/26 06:46:56;;;;;;;;;;;8.70;75.50;;;;;;6134336;23;19994;-73
2022/04/26 06:49:21;;;;;;;;;;;8.80;76.00;;;;;;6158767;23;19951;-76
2022/04/26 06:51:47;;;;;;;;;;;8.80;76.00;;;;;;6134906;23;19916;-76
2022/04/26 06:54:12;;;;;;;;;;;8.80;76.50;;;;;;6135569;23;19916;-76
2022/04/26 06:56:40;;;;;;;;;;;8.90;76.50;;;;;;6158721;23;19920;-74
2022/04/26 06:59:05;;;;;;;;;;;8.90;75.50;;;;;;6133920;23;19924;-79
2022/04/26 07:01:31;;;;;;;;;;;9.20;75.90;;;;;;6159096;23;20224;-76
2022/04/26 07:03:57;;;;;;;;;;;9.30;75.20;;;;;;6159415;23;20226;-74
2022/04/26 07:06:23;;;;;;;;;;;9.50;74.20;;;;;;6134319;23;19979;-75
2022/04/26 07:08:48;;;;;;;;;;;9.80;74.00;;;;;;6134847;23;19954;-75
2022/04/26 07:11:17;;;;;;;;;;;9.90;70.90;;;;;;6159723;23;19982;-76
2022/04/26 07:13:42;;;;;;;;;;;9.60;71.10;;;;;;6160016;23;19962;-77
2022/04/26 07:50:10;;;;;;;;;;;;;;;;;;;;;
2022/04/26 07:56:36;;;;;;;;;;;9.90;68.20;;;;;;5970088;23;19977;-76
2022/04/26 08:03:23;;;;;;;;;;;;;;;;;;;;;
2022/04/26 08:13:09;;;;;;;;;;;;;;;;;;;;;
2022/04/26 08:16:00;;;;;;;;;;;10.70;65.30;;;;;;6015033;23;19921;-73
2022/04/26 08:18:44;;;;;;;;;;;10.50;62.80;;;;;;6067521;23;19924;-75
2022/04/26 08:21:30;;;;;;;;;;;10.60;64.10;;;;;;6048534;23;19918;-74
2022/04/26 08:31:18;;;;;;;;;;;;;;;;;;;;;
2022/04/26 08:37:23;;;;;;;;;;;;;;;;;;;;;
2022/04/26 08:40:26;;;;;;;;;;;;;;;;;;;;;
2022/04/26 08:43:44;;;;;;;;;;;11.50;61.60;;;;;;6038280;23;19993;-74
2022/04/26 08:53:01;;;;;;;;;;;12.00;59.70;;;;;;6038005;23;19920;-74
2022/04/26 08:56:06;;;;;;;;;;;12.10;58.20;;;;;;6040329;23;20004;-75
2022/04/26 08:58:54;;;;;;;;;;;12.00;57.20;;;;;;5932518;24;19946;-75
2022/04/26 09:01:35;;;;;;;;;;;12.00;56.80;;;;;;6039531;23;19936;-74
2022/04/26 09:04:26;;;;;;;;;;;12.00;59.70;;;;;;6021952;23;20010;-72
2022/04/26 09:07:31;;;;;;;;;;;12.00;60.30;;;;;;6080601;23;19924;-74
2022/04/26 09:10:29;;;;;;;;;;;12.20;58.00;;;;;;6157288;23;20274;-74
2022/04/26 09:13:14;;;;;;;;;;;12.50;57.30;;;;;;6082251;23;19960;-72
2022/04/26 09:15:54;;;;;;;;;;;12.40;58.20;;;;;;6100158;23;20302;-74
2022/04/26 09:18:43;;;;;;;;;;;12.80;59.70;;;;;;6099141;23;20213;-74
2022/04/26 09:21:26;;;;;;;;;;;12.80;56.80;;;;;;6100351;23;19913;-75
2022/04/26 09:24:26;;;;;;;;;;;12.80;56.40;;;;;;6130740;23;19912;-74
2022/04/26 09:27:38;;;;;;;;;;;12.80;57.50;;;;;;6119233;23;19960;-73
2022/04/26 09:30:36;;;;;;;;;;;13.10;57.40;;;;;;6128895;23;20235;-73
2022/04/26 09:33:37;;;;;;;;;;;;;;;;;;;;;
2022/04/26 09:42:33;;;;;;;;;;;12.50;56.00;;;;;;6101575;23;19919;-75
2022/04/26 09:45:14;;;;;;;;;;;12.70;56.40;;;;;;6132610;23;19912;-72
2022/04/26 09:47:55;;;;;;;;;;;12.90;56.60;;;;;;6161072;23;19971;-73
2022/04/26 09:50:33;;;;;;;;;;;12.90;55.20;;;;;;6136426;23;19951;-74
2022/04/26 09:53:07;;;;;;;;;;;12.60;55.40;;;;;;6136108;23;19918;-73
2022/04/26 09:56:11;;;;;;;;;;;12.70;57.00;;;;;;6136893;23;19920;-74
2022/04/26 09:58:37;;;;;;;;;;;13.10;57.70;;;;;;6098259;23;20238;-78
2022/04/26 10:01:04;;;;;;;;;;;13.30;55.90;;;;;;6160248;23;19962;-74
2022/04/26 10:03:32;;;;;;;;;;;13.20;56.00;;;;;;6160264;23;19920;-73
2022/04/26 10:06:01;;;;;;;;;;;13.10;56.60;;;;;;6134772;23;19912;-72
2022/04/26 10:08:38;;;;;;;;;;;12.70;55.50;;;;;;6135753;23;19927;-74
2022/04/26 10:11:04;;;;;;;;;;;12.50;56.50;;;;;;6186162;23;19947;-71
2022/04/26 10:13:39;;;;;;;;;;;12.60;57.70;;;;;;6159897;23;19912;-77
2022/04/26 10:16:09;;;;;;;;;;;12.80;58.60;;;;;;6135490;23;19963;-78
2022/04/26 10:18:45;;;;;;;;;;;13.00;58.20;;;;;;6186694;23;20282;-74
2022/04/26 10:21:12;;;;;;;;;;;13.20;55.80;;;;;;6160483;23;19916;-78
2022/04/26 10:24:02;;;;;;;;;;;13.60;55.40;;;;;;6135810;23;19916;-72
2022/04/26 10:26:54;;;;;;;;;;;13.40;55.20;;;;;;6135601;23;19924;-73
2022/04/26 10:29:23;;;;;;;;;;;13.20;54.30;;;;;;6135663;23;19928;-71
2022/04/26 10:31:49;;;;;;;;;;;13.00;57.10;;;;;;6158585;23;19916;-70
2022/04/26 10:34:24;;;;;;;;;;;13.10;57.80;;;;;;6134836;23;19994;-73
2022/04/26 10:36:50;;;;;;;;;;;13.30;57.20;;;;;;6134691;23;19923;-70
2022/04/26 10:39:26;;;;;;;;;;;13.20;55.80;;;;;;6134779;23;19912;-72
2022/04/26 10:41:54;;;;;;;;;;;13.10;56.10;;;;;;6135231;23;19914;-77
2022/04/26 10:44:26;;;;;;;;;;;13.20;55.70;;;;;;6134490;23;19912;-74
2022/04/26 10:47:11;;;;;;;;;;;13.20;55.00;;;;;;6159061;23;19931;-74
2022/04/26 10:49:47;;;;;;;;;;;13.20;55.70;;;;;;6158784;23;19912;-75
2022/04/26 10:52:13;;;;;;;;;;;13.30;53.90;;;;;;6134339;23;19919;-77
2022/04/26 10:54:45;;;;;;;;;;;13.00;55.20;;;;;;6158495;23;20242;-77
2022/04/26 10:57:20;;;;;;;;;;;13.10;55.20;;;;;;6134151;23;19916;-77
2022/04/26 11:00:05;;;;;;;;;;;13.20;54.40;;;;;;6134526;23;19966;-75
2022/04/26 11:03:00;;;;;;;;;;;12.90;55.90;;;;;;6131339;23;19967;-73
2022/04/26 11:05:26;;;;;;;;;;;13.10;56.50;;;;;;6132631;23;19913;-73
2022/04/26 11:07:52;;;;;;;;;;;13.40;57.00;;;;;;6133002;23;19951;-73
2022/04/26 11:10:19;;;;;;;;;;;13.30;55.30;;;;;;6156841;23;20331;-74
2022/04/26 11:12:47;;;;;;;;;;;13.20;52.60;;;;;;6143371;23;19916;-74
2022/04/26 11:15:21;;;;;;;;;;;12.90;54.50;;;;;;6157134;23;20362;-71
2022/04/26 11:17:49;;;;;;;;;;;13.20;56.40;;;;;;6158563;23;19923;-72
2022/04/26 11:20:35;;;;;;;;;;;13.10;54.20;;;;;;6157657;23;20004;-74
2022/04/26 11:27:59;;;;;;;;;;;12.80;54.70;;;;;;6133775;23;19916;-71
2022/04/26 11:28:30;;;;;;;;;;;13.30;54.00;;;;;;6185003;23;19923;-77
2022/04/26 11:30:57;;;;;;;;;;;13.30;53.20;;;;;;6133728;23;19912;-78
2022/04/26 11:33:23;;;;;;;;;;;13.50;53.90;;;;;;6158383;23;19916;-81
2022/04/26 11:35:59;;;;;;;;;;;13.30;53.80;;;;;;6158540;23;19912;-80
2022/04/26 11:38:25;;;;;;;;;;;13.40;55.00;;;;;;6133996;23;19916;-78
2022/04/26 11:40:55;;;;;;;;;;;13.50;51.60;;;;;;6134349;23;19947;-80
2022/04/26 11:43:22;;;;;;;;;;;13.30;53.00;;;;;;6157949;23;19971;-80
2022/04/26 11:45:49;;;;;;;;;;;13.20;53.30;;;;;;6134052;23;19924;-81
2022/04/26 11:48:16;;;;;;;;;;;13.30;53.90;;;;;;6159048;23;19916;-80
2022/04/26 11:50:42;;;;;;;;;;;13.10;53.80;;;;;;6133437;23;20209;-80
2022/04/26 11:53:09;;;;;;;;;;;13.10;55.60;;;;;;6134917;23;20054;-79
2022/04/26 11:55:36;;;;;;;;;;;13.20;51.30;;;;;;6135331;23;19916;-79
2022/04/26 11:58:05;;;;;;;;;;;13.20;52.60;;;;;;6135676;23;19966;-81
2022/04/26 12:00:31;;;;;;;;;;;13.30;54.20;;;;;;6135079;23;19916;-77
2022/04/26 12:02:57;;;;;;;;;;;13.60;53.30;;;;;;6159808;23;20049;-80
2022/04/26 12:05:22;;;;;;;;;;;13.40;53.40;;;;;;6135586;23;19967;-78
2022/04/26 12:07:49;;;;;;;;;;;13.40;52.30;;;;;;6159788;23;19916;-79
2022/04/26 12:10:24;;;;;;;;;;;13.40;51.50;;;;;;6159859;23;19916;-78
2022/04/26 12:12:55;;;;;;;;;;;13.60;53.00;;;;;;6158128;23;19904;-80
2022/04/26 12:15:25;;;;;;;;;;;13.80;51.20;;;;;;6163354;23;19926;-80
2022/04/26 12:18:07;;;;;;;;;;;13.80;48.90;;;;;;6163475;23;19908;-79
2022/04/26 12:20:35;;;;;;;;;;;13.60;52.20;;;;;;6162923;23;19908;-79
2022/04/26 12:23:01;;;;;;;;;;;13.80;53.50;;;;;;6159962;23;19939;-79
2022/04/26 12:25:27;;;;;;;;;;;13.80;50.70;;;;;;6159621;23;20231;-80
2022/04/26 12:28:08;;;;;;;;;;;13.70;53.10;;;;;;6135233;23;19913;-80
2022/04/26 12:30:37;;;;;;;;;;;13.80;53.40;;;;;;6134897;23;19916;-79
2022/04/26 12:33:04;;;;;;;;;;;13.90;52.50;;;;;;6136430;23;19916;-81
2022/04/26 12:35:29;;;;;;;;;;;13.60;50.10;;;;;;6136382;23;19995;-80
2022/04/26 12:38:08;;;;;;;;;;;13.30;50.70;;;;;;6136888;23;19956;-81
2022/04/26 12:40:35;;;;;;;;;;;12.90;52.10;;;;;;6161281;23;19982;-79
2022/04/26 12:43:01;;;;;;;;;;;12.80;53.30;;;;;;6161695;23;19916;-74
2022/04/26 12:45:26;;;;;;;;;;;12.80;53.30;;;;;;6149642;23;19927;-74
2022/04/26 12:50:49;;;;;;;;;;;12.90;54.20;;;;;;6160955;23;19923;-80
2022/04/26 12:53:22;;;;;;;;;;;13.30;54.30;;;;;;6161233;23;19987;-79
2022/04/26 12:55:48;;;;;;;;;;;13.80;53.50;;;;;;6136465;23;19916;-80
2022/04/26 12:58:14;;;;;;;;;;;13.80;51.40;;;;;;6161067;23;20252;-81
2022/04/26 13:00:41;;;;;;;;;;;13.80;51.10;;;;;;6136553;23;19923;-80
2022/04/26 13:03:07;;;;;;;;;;;13.80;51.20;;;;;;6161050;23;20237;-78
2022/04/26 13:05:46;;;;;;;;;;;13.80;52.50;;;;;;6135945;23;19987;-80
2022/04/26 13:08:12;;;;;;;;;;;13.90;51.80;;;;;;6160569;23;19970;-80
2022/04/26 13:10:41;;;;;;;;;;;14.10;52.10;;;;;;6135979;23;19916;-80
2022/04/26 13:13:08;;;;;;;;;;;14.00;50.10;;;;;;6160765;23;20015;-80
2022/04/26 13:15:34;;;;;;;;;;;14.20;51.70;;;;;;6136002;23;19939;-79
2022/04/26 13:17:59;;;;;;;;;;;14.40;51.60;;;;;;6161266;23;19966;-78
2022/04/26 13:20:25;;;;;;;;;;;14.50;51.50;;;;;;6136116;23;19920;-80
2022/04/26 13:22:51;;;;;;;;;;;14.40;50.70;;;;;;6111589;23;19919;-78
2022/04/26 13:25:17;;;;;;;;;;;14.50;49.40;;;;;;6160538;23;19912;-80
2022/04/26 13:27:45;;;;;;;;;;;14.60;49.00;;;;;;6160756;23;20274;-82
2022/04/26 13:30:11;;;;;;;;;;;14.90;50.50;;;;;;6160610;23;20208;-80
2022/04/26 13:32:37;;;;;;;;;;;14.90;48.80;;;;;;6160662;23;19939;-80
2022/04/26 13:35:05;;;;;;;;;;;14.70;49.20;;;;;;6160532;23;19920;-79
2022/04/26 13:37:31;;;;;;;;;;;14.50;49.80;;;;;;6135928;23;20278;-80
2022/04/26 13:39:58;;;;;;;;;;;14.30;49.40;;;;;;6157090;23;20299;-79
2022/04/26 13:42:25;;;;;;;;;;;14.10;50.30;;;;;;6110565;23;19924;-76
2022/04/26 13:44:52;;;;;;;;;;;14.10;51.70;;;;;;6135147;23;19916;-77
2022/04/26 13:47:20;;;;;;;;;;;14.00;52.40;;;;;;6185979;23;19916;-80
2022/04/26 13:49:49;;;;;;;;;;;13.90;51.30;;;;;;6159643;23;20016;-79
2022/04/26 13:52:15;;;;;;;;;;;13.80;51.30;;;;;;6159338;23;19917;-78
2022/04/26 13:54:58;;;;;;;;;;;13.80;52.20;;;;;;6134571;23;20042;-81
2022/04/26 13:57:33;;;;;;;;;;;14.10;52.00;;;;;;6134710;23;19917;-79
2022/04/26 13:59:59;;;;;;;;;;;13.90;50.60;;;;;;6158840;23;19970;-82
2022/04/26 14:02:48;;;;;;;;;;;13.70;50.30;;;;;;6159984;23;19920;-83
2022/04/26 14:05:29;;;;;;;;;;;13.40;51.00;;;;;;6134599;23;19917;-73
2022/04/26 14:07:55;;;;;;;;;;;13.60;51.90;;;;;;6159863;23;19912;-78
2022/04/26 14:10:20;;;;;;;;;;;13.60;51.70;;;;;;6158727;23;19991;-79
2022/04/26 14:12:46;;;;;;;;;;;13.70;50.70;;;;;;6135130;23;19916;-80
2022/04/26 14:23:52;;;;;;;;;;;13.50;49.60;;;;;;6159617;23;19923;-82
2022/04/26 14:26:21;;;;;;;;;;;13.40;51.50;;;;;;6124106;23;19923;-81
2022/04/26 14:28:47;;;;;;;;;;;13.20;52.30;;;;;;6160387;23;19916;-80
2022/04/26 14:31:12;;;;;;;;;;;13.00;50.30;;;;;;6159988;23;19916;-80
2022/04/26 14:33:38;;;;;;;;;;;12.90;52.40;;;;;;6160271;23;20274;-81
2022/04/26 14:36:04;;;;;;;;;;;13.00;53.50;;;;;;6159627;23;19916;-80
2022/04/26 14:38:30;;;;;;;;;;;13.30;53.60;;;;;;6136028;23;19916;-80
2022/04/26 14:40:55;;;;;;;;;;;13.40;52.10;;;;;;6135283;23;20315;-81
2022/04/26 14:43:21;;;;;;;;;;;13.90;50.80;;;;;;6160092;23;19962;-79
2022/04/26 14:45:47;;;;;;;;;;;13.60;49.60;;;;;;6159723;23;20365;-81
2022/04/26 14:48:14;;;;;;;;;;;13.80;50.00;;;;;;6159997;23;19954;-79
2022/04/26 14:50:40;;;;;;;;;;;13.40;50.10;;;;;;6135593;23;19983;-80
2022/04/26 14:53:06;;;;;;;;;;;13.00;52.20;;;;;;6161251;23;19927;-80
2022/04/26 14:55:32;;;;;;;;;;;12.80;52.40;;;;;;6134912;23;19920;-79
2022/04/26 14:57:57;;;;;;;;;;;12.50;51.50;;;;;;6136442;23;19979;-81
2022/04/26 15:00:23;;;;;;;;;;;12.80;52.20;;;;;;6160012;23;19912;-79
2022/04/26 15:02:49;;;;;;;;;;;13.20;51.10;;;;;;6135520;23;19912;-79
2022/04/26 15:05:14;;;;;;;;;;;13.30;50.40;;;;;;6159767;23;19920;-79
2022/04/26 15:10:25;;;;;;;;;;;13.20;52.60;;;;;;6159473;23;20255;-79
2022/04/26 15:18:20;;;;;;;;;;;14.90;48.30;;;;;;6160371;23;19916;-81
2022/04/26 15:20:52;;;;;;;;;;;15.80;47.60;;;;;;6135678;23;19917;-80
2022/04/26 15:23:20;;;;;;;;;;;15.90;45.70;;;;;;6111235;23;19912;-80
2022/04/26 15:25:50;;;;;;;;;;;15.40;45.00;;;;;;6159070;23;19916;-80
2022/04/26 15:28:18;;;;;;;;;;;15.50;45.60;;;;;;6160209;23;20407;-80
2022/04/26 15:30:43;;;;;;;;;;;15.80;44.20;;;;;;6135501;23;19912;-80
2022/04/26 15:33:10;;;;;;;;;;;16.10;44.00;;;;;;6159963;23;19912;-81
2022/04/26 15:35:36;;;;;;;;;;;16.00;44.40;;;;;;6134215;23;19923;-78
2022/04/26 15:38:03;;;;;;;;;;;15.50;44.50;;;;;;6142335;23;19916;-75
2022/04/26 15:40:28;;;;;;;;;;;15.60;45.10;;;;;;6158023;23;19919;-75
2022/04/26 15:42:54;;;;;;;;;;;16.00;45.40;;;;;;6148521;23;19912;-81
2022/04/26 15:45:19;;;;;;;;;;;16.20;45.00;;;;;;6159650;23;19912;-82
2022/04/26 15:47:45;;;;;;;;;;;15.80;43.40;;;;;;6135575;23;19924;-81
2022/04/26 15:50:11;;;;;;;;;;;16.10;43.70;;;;;;6135537;23;19917;-80
2022/04/26 15:52:38;;;;;;;;;;;16.40;42.30;;;;;;6160110;23;20263;-81
2022/04/26 15:55:04;;;;;;;;;;;16.60;42.70;;;;;;6135024;23;20319;-80
2022/04/26 15:57:30;;;;;;;;;;;17.20;42.40;;;;;;6160452;23;20338;-80
2022/04/26 15:59:55;;;;;;;;;;;17.60;41.30;;;;;;6135376;23;19920;-80
2022/04/26 16:02:23;;;;;;;;;;;16.90;40.80;;;;;;6135577;23;19916;-81
2022/04/26 16:04:52;;;;;;;;;;;16.70;43.10;;;;;;6159994;23;19923;-80
2022/04/26 16:07:23;;;;;;;;;;;16.60;44.50;;;;;;6137776;23;19971;-80
2022/04/26 16:20:49;;;;;;;;;;;14.40;49.20;;;;;;6161566;23;19916;-81
2022/04/26 16:23:17;;;;;;;;;;;13.80;52.10;;;;;;6137051;23;19992;-79
2022/04/26 16:25:43;;;;;;;;;;;13.60;52.10;;;;;;6136137;23;19958;-80
2022/04/26 16:28:09;;;;;;;;;;;13.10;53.80;;;;;;6136722;23;19916;-79
2022/04/26 16:30:40;;;;;;;;;;;12.80;55.30;;;;;;6161715;23;19916;-81
2022/04/26 16:33:08;;;;;;;;;;;12.60;56.50;;;;;;6162059;23;19959;-79
2022/04/26 16:35:34;;;;;;;;;;;12.40;56.80;;;;;;6161560;23;19916;-80
2022/04/26 16:38:00;;;;;;;;;;;12.20;57.30;;;;;;6161427;23;19916;-81
2022/04/26 16:40:28;;;;;;;;;;;11.90;57.10;;;;;;6136481;23;19920;-80
2022/04/26 16:43:21;;;;;;;;;;;11.80;58.20;;;;;;6136411;23;19912;-81
2022/04/26 16:45:48;;;;;;;;;;;11.80;58.00;;;;;;6136972;23;20318;-80
2022/04/26 16:48:14;;;;;;;;;;;11.70;59.40;;;;;;6161530;23;20323;-78
2022/04/26 16:50:40;;;;;;;;;;;11.50;60.80;;;;;;6160911;23;19912;-77
2022/04/26 16:53:24;;;;;;;;;;;11.50;61.50;;;;;;6141969;23;19952;-79
2022/04/26 16:55:50;;;;;;;;;;;11.50;62.00;;;;;;6115060;23;19912;-78
2022/04/26 16:58:18;;;;;;;;;;;11.40;62.60;;;;;;6136762;23;20067;-79
2022/04/26 17:00:45;;;;;;;;;;;11.40;62.30;;;;;;6136796;23;19913;-80
2022/04/26 17:03:11;;;;;;;;;;;11.40;62.20;;;;;;6136071;23;19944;-80
2022/04/26 17:05:41;;;;;;;;;;;11.30;62.30;;;;;;6138462;23;19935;-80
2022/04/26 17:08:07;;;;;;;;;;;11.30;61.40;;;;;;6164443;23;19916;-81
2022/04/26 17:10:33;;;;;;;;;;;11.20;61.30;;;;;;6172423;23;19973;-75
2022/04/26 17:13:01;;;;;;;;;;;11.20;62.40;;;;;;6187380;23;19944;-79
2022/04/26 17:15:31;;;;;;;;;;;11.10;63.00;;;;;;6139243;23;19917;-81
2022/04/26 17:18:27;;;;;;;;;;;11.10;62.50;;;;;;6149638;23;20345;-80
2022/04/26 17:21:20;;;;;;;;;;;11.00;63.10;;;;;;6137346;23;19978;-80
2022/04/26 17:23:51;;;;;;;;;;;10.90;63.40;;;;;;6136373;23;19955;-80
2022/04/26 17:26:17;;;;;;;;;;;10.90;62.80;;;;;;6135767;23;19919;-78
2022/04/26 17:28:48;;;;;;;;;;;11.00;62.40;;;;;;6160956;23;19912;-81
2022/04/26 17:31:19;;;;;;;;;;;11.00;63.10;;;;;;6137140;23;20281;-79
2022/04/26 17:33:56;;;;;;;;;;;11.00;62.40;;;;;;6138115;23;20350;-78
2022/04/26 17:36:24;;;;;;;;;;;11.00;63.50;;;;;;6160993;23;19951;-79
2022/04/26 17:38:52;;;;;;;;;;;11.10;64.10;;;;;;6136490;23;19923;-80
2022/04/26 17:41:21;;;;;;;;;;;11.20;64.50;;;;;;6136672;23;19944;-79
2022/04/26 17:44:07;;;;;;;;;;;11.30;62.50;;;;;;6136571;23;19912;-81
2022/04/26 17:46:42;;;;;;;;;;;11.30;60.90;;;;;;6136232;23;20231;-80
2022/04/26 18:06:24;;;;;;;;;;;10.90;63.10;;;;;;6038725;23;19917;-70
2022/04/26 18:08:50;;;;;;;;;;;10.80;64.30;;;;;;6007087;23;19916;-74
2022/04/26 18:11:16;;;;;;;;;;;10.80;64.90;;;;;;6097983;23;19991;-74
2022/04/26 18:14:29;;;;;;;;;;;;;;;;;;;;;
2022/04/26 18:24:32;;;;;;;;;;;10.50;66.80;;;;;;6123498;23;19924;-77
2022/04/26 18:26:58;;;;;;;;;;;10.40;66.30;;;;;;6108426;23;19990;-75
2022/04/26 18:39:49;;;;;;;;;;;10.00;68.20;;;;;;6206112;23;19919;-77
2022/04/26 18:42:38;;;;;;;;;;;9.90;69.40;;;;;;6150984;23;19912;-74
2022/04/26 18:45:04;;;;;;;;;;;9.70;70.40;;;;;;6138178;23;19991;-77
2022/04/26 18:47:30;;;;;;;;;;;9.70;70.30;;;;;;6157967;23;20290;-77
2022/04/26 18:49:56;;;;;;;;;;;9.60;71.20;;;;;;6134057;23;19920;-73
2022/04/26 18:52:58;;;;;;;;;;;;;;;;;;;;;
2022/04/26 18:55:46;;;;;;;;;;;9.40;72.00;;;;;;6183560;23;19917;-82
2022/04/26 19:05:15;;;;;;;;;;;9.20;72.60;;;;;;6185400;23;19911;-76
2022/04/26 19:07:48;;;;;;;;;;;9.10;72.20;;;;;;6159962;23;19998;-73
2022/04/26 19:12:59;;;;;;;;;;;8.90;72.50;;;;;;6158963;23;19940;-73
2022/04/26 19:15:25;;;;;;;;;;;9.00;73.30;;;;;;6134105;23;19947;-73
2022/04/26 19:17:54;;;;;;;;;;;8.80;72.60;;;;;;6159256;23;19958;-74
2022/04/26 19:20:19;;;;;;;;;;;8.80;72.80;;;;;;6134791;23;20335;-75
2022/04/26 19:22:45;;;;;;;;;;;8.70;73.50;;;;;;6134864;23;20022;-75
2022/04/26 19:25:11;;;;;;;;;;;8.60;72.50;;;;;;6134348;23;19978;-75
2022/04/26 19:27:36;;;;;;;;;;;8.60;72.90;;;;;;6134822;23;20373;-76
2022/04/26 19:30:02;;;;;;;;;;;8.50;72.70;;;;;;6134573;23;19912;-73
2022/04/26 19:32:30;;;;;;;;;;;8.50;73.30;;;;;;6134655;23;19912;-76
2022/04/26 19:38:27;;;;;;;;;;;8.30;71.80;;;;;;6185762;23;19931;-76
2022/04/26 19:41:09;;;;;;;;;;;8.20;73.80;;;;;;6187099;23;19912;-74
2022/04/26 19:43:34;;;;;;;;;;;8.00;73.50;;;;;;6136890;23;20274;-73
2022/04/26 19:46:00;;;;;;;;;;;8.30;74.20;;;;;;6135929;23;20275;-72
2022/04/26 19:48:26;;;;;;;;;;;8.00;74.00;;;;;;6136121;23;20381;-73
2022/04/26 19:53:36;;;;;;;;;;;8.00;74.30;;;;;;6161428;23;19920;-72
2022/04/26 19:56:02;;;;;;;;;;;7.90;74.80;;;;;;6161163;23;19916;-72
2022/04/26 19:58:27;;;;;;;;;;;7.80;74.50;;;;;;6136268;23;19942;-75
2022/04/26 20:00:53;;;;;;;;;;;7.90;75.60;;;;;;6136334;23;20235;-74
2022/04/26 20:07:09;;;;;;;;;;;7.90;76.10;;;;;;6134758;23;19961;-83
2022/04/26 20:16:44;;;;;;;;;;;7.90;76.00;;;;;;6125280;23;19916;-74
2022/04/26 20:19:19;;;;;;;;;;;8.00;77.30;;;;;;6101466;23;20003;-76
2022/04/26 20:21:45;;;;;;;;;;;8.00;76.80;;;;;;6101597;23;20275;-78
2022/04/26 20:24:11;;;;;;;;;;;7.90;78.70;;;;;;6151973;23;19904;-75
2022/04/26 20:32:05;;;;;;;;;;;8.20;78.00;;;;;;6183361;23;19926;-76
2022/04/26 20:34:31;;;;;;;;;;;8.10;78.10;;;;;;6136071;23;19950;-74
2022/04/26 20:37:21;;;;;;;;;;;8.30;78.20;;;;;;6160868;23;19919;-84
2022/04/26 20:42:45;;;;;;;;;;;8.30;78.70;;;;;;6106156;23;20328;-80
2022/04/26 20:48:43;;;;;;;;;;;8.30;78.40;;;;;;6186610;23;20242;-77
2022/04/26 20:51:12;;;;;;;;;;;8.40;78.60;;;;;;6135793;23;19919;-77
2022/04/26 20:53:37;;;;;;;;;;;8.40;77.90;;;;;;6135831;23;19991;-80
2022/04/26 20:56:03;;;;;;;;;;;8.60;79.40;;;;;;6135796;23;19951;-78
2022/04/26 20:58:29;;;;;;;;;;;8.40;79.20;;;;;;6136374;23;19923;-80
2022/04/26 21:00:57;;;;;;;;;;;8.50;78.30;;;;;;6136644;23;19912;-80
2022/04/26 21:03:23;;;;;;;;;;;8.50;80.30;;;;;;6136240;23;20248;-80
2022/04/26 21:05:50;;;;;;;;;;;8.50;79.90;;;;;;6136021;23;19923;-77
2022/04/26 21:08:16;;;;;;;;;;;8.50;80.30;;;;;;6136392;23;20338;-76
2022/04/26 21:10:41;;;;;;;;;;;8.50;79.30;;;;;;6160491;23;19916;-77
2022/04/26 21:13:24;;;;;;;;;;;8.50;80.10;;;;;;6136067;23;19916;-79
2022/04/26 21:15:55;;;;;;;;;;;8.50;79.60;;;;;;6136223;23;19923;-79
2022/04/26 21:18:24;;;;;;;;;;;8.50;80.30;;;;;;6136789;23;19955;-76
2022/04/26 21:20:53;;;;;;;;;;;8.50;78.90;;;;;;6135818;23;19916;-76
2022/04/26 21:23:18;;;;;;;;;;;8.50;79.00;;;;;;6136232;23;19913;-76
2022/04/26 21:25:44;;;;;;;;;;;8.60;79.30;;;;;;6135138;23;19987;-76
2022/04/26 21:28:10;;;;;;;;;;;8.60;79.90;;;;;;6135818;23;19912;-78